sensor_id;sensor_type;location;lat;lon;timestamp;P1;durP1;ratioP1;P2;durP2;ratioP2
24401;SDS011;12539;48.808;11.292;2022-09-27T00:00:34;5.13;;;3.50;;
24401;SDS011;12539;48.808;11.292;2022-09-27T00:03:01;5.63;;;3.92;;
24401;SDS011;12539;48.808;11.292;2022-09-27T00:05:26;5.95;;;3.58;;
24401;SDS011;12539;48.808;11.292;2022-09-27T00:07:52;4.45;;;3.33;;
24401;SDS011;12539;48.808;11.292;2022-09-27T00:10:18;9.02;;;4.20;;
24401;SDS011;12539;48.808;11.292;2022-09-27T00:12:44;5.30;;;3.80;;
24401;SDS011;12539;48.808;11.292;2022-09-27T00:15:12;5.30;;;3.08;;
24401;SDS011;12539;48.808;11.292;2022-09-27T00:17:38;4.10;;;3.08;;
24401;SDS011;12539;48.808;11.292;2022-09-27T00:20:08;5.43;;;3.30;;
24401;SDS011;12539;48.808;11.292;2022-09-27T00:22:35;4.53;;;3.80;;
24401;SDS011;12539;48.808;11.292;2022-09-27T00:25:01;5.85;;;3.58;;
24401;SDS011;12539;48.808;11.292;2022-09-27T00:27:29;5.13;;;4.28;;
24401;SDS011;12539;48.808;11.292;2022-09-27T00:29:56;6.32;;;4.30;;
24401;SDS011;12539;48.808;11.292;2022-09-27T00:32:21;5.65;;;3.33;;
24401;SDS011;12539;48.808;11.292;2022-09-27T00:34:47;5.97;;;3.50;;
24401;SDS011;12539;48.808;11.292;2022-09-27T00:37:13;6.68;;;4.32;;
24401;SDS011;12539;48.808;11.292;2022-09-27T00:39:39;5.75;;;3.22;;
24401;SDS011;12539;48.808;11.292;2022-09-27T00:42:05;3.65;;;2.60;;
24401;SDS011;12539;48.808;11.292;2022-09-27T00:50:36;7.22;;;4.32;;
24401;SDS011;12539;48.808;11.292;2022-09-27T00:52:50;7.57;;;3.63;;
24401;SDS011;12539;48.808;11.292;2022-09-27T00:55:35;3.53;;;2.63;;
24401;SDS011;12539;48.808;11.292;2022-09-27T00:58:11;6.40;;;3.10;;
24401;SDS011;12539;48.808;11.292;2022-09-27T01:00:41;5.03;;;3.00;;
24401;SDS011;12539;48.808;11.292;2022-09-27T01:03:13;6.03;;;2.42;;
24401;SDS011;12539;48.808;11.292;2022-09-27T01:05:46;3.42;;;2.38;;
24401;SDS011;12539;48.808;11.292;2022-09-27T01:08:12;3.65;;;1.90;;
24401;SDS011;12539;48.808;11.292;2022-09-27T01:10:45;3.75;;;1.73;;
24401;SDS011;12539;48.808;11.292;2022-09-27T01:13:54;3.45;;;2.50;;
24401;SDS011;12539;48.808;11.292;2022-09-27T01:16:17;3.30;;;1.75;;
24401;SDS011;12539;48.808;11.292;2022-09-27T01:29:10;3.25;;;2.25;;
24401;SDS011;12539;48.808;11.292;2022-09-27T01:34:43;2.45;;;1.75;;
24401;SDS011;12539;48.808;11.292;2022-09-27T01:43:13;4.63;;;2.25;;
24401;SDS011;12539;48.808;11.292;2022-09-27T01:45:57;3.08;;;1.75;;
24401;SDS011;12539;48.808;11.292;2022-09-27T01:48:31;2.78;;;1.83;;
24401;SDS011;12539;48.808;11.292;2022-09-27T01:51:03;2.33;;;1.15;;
24401;SDS011;12539;48.808;11.292;2022-09-27T01:53:37;2.72;;;1.55;;
24401;SDS011;12539;48.808;11.292;2022-09-27T01:56:10;2.58;;;1.88;;
24401;SDS011;12539;48.808;11.292;2022-09-27T01:58:41;1.80;;;1.30;;
24401;SDS011;12539;48.808;11.292;2022-09-27T02:01:31;6.32;;;1.10;;
24401;SDS011;12539;48.808;11.292;2022-09-27T02:04:00;2.13;;;1.25;;
24401;SDS011;12539;48.808;11.292;2022-09-27T02:06:28;1.85;;;1.38;;
24401;SDS011;12539;48.808;11.292;2022-09-27T02:11:28;3.00;;;1.70;;
24401;SDS011;12539;48.808;11.292;2022-09-27T02:14:14;2.63;;;1.70;;
24401;SDS011;12539;48.808;11.292;2022-09-27T02:16:51;2.28;;;1.42;;
24401;SDS011;12539;48.808;11.292;2022-09-27T02:24:23;3.88;;;1.90;;
24401;SDS011;12539;48.808;11.292;2022-09-27T02:27:05;2.13;;;1.02;;
24401;SDS011;12539;48.808;11.292;2022-09-27T02:30:03;4.65;;;1.80;;
24401;SDS011;12539;48.808;11.292;2022-09-27T02:32:32;2.58;;;1.70;;
24401;SDS011;12539;48.808;11.292;2022-09-27T02:34:59;2.85;;;1.90;;
24401;SDS011;12539;48.808;11.292;2022-09-27T02:37:31;2.63;;;1.23;;
24401;SDS011;12539;48.808;11.292;2022-09-27T02:39:58;2.60;;;2.03;;
24401;SDS011;12539;48.808;11.292;2022-09-27T02:42:24;3.63;;;1.77;;
24401;SDS011;12539;48.808;11.292;2022-09-27T02:44:51;2.17;;;1.02;;
24401;SDS011;12539;48.808;11.292;2022-09-27T02:47:24;2.53;;;1.33;;
24401;SDS011;12539;48.808;11.292;2022-09-27T02:55:12;2.45;;;1.02;;
24401;SDS011;12539;48.808;11.292;2022-09-27T03:01:30;1.10;;;0.80;;
24401;SDS011;12539;48.808;11.292;2022-09-27T03:04:27;2.38;;;1.02;;
24401;SDS011;12539;48.808;11.292;2022-09-27T03:06:59;3.03;;;1.48;;
24401;SDS011;12539;48.808;11.292;2022-09-27T03:09:35;2.75;;;0.95;;
24401;SDS011;12539;48.808;11.292;2022-09-27T03:12:06;2.08;;;1.27;;
24401;SDS011;12539;48.808;11.292;2022-09-27T03:14:32;1.85;;;1.27;;
24401;SDS011;12539;48.808;11.292;2022-09-27T03:16:57;2.92;;;2.17;;
24401;SDS011;12539;48.808;11.292;2022-09-27T03:19:23;1.60;;;0.98;;
24401;SDS011;12539;48.808;11.292;2022-09-27T03:21:49;1.95;;;0.93;;
24401;SDS011;12539;48.808;11.292;2022-09-27T03:24:15;1.35;;;1.00;;
24401;SDS011;12539;48.808;11.292;2022-09-27T03:26:40;2.90;;;1.10;;
24401;SDS011;12539;48.808;11.292;2022-09-27T03:29:06;3.42;;;1.70;;
24401;SDS011;12539;48.808;11.292;2022-09-27T03:31:32;2.38;;;1.30;;
24401;SDS011;12539;48.808;11.292;2022-09-27T03:33:58;2.97;;;1.50;;
24401;SDS011;12539;48.808;11.292;2022-09-27T03:36:23;1.20;;;1.00;;
24401;SDS011;12539;48.808;11.292;2022-09-27T03:38:49;1.02;;;0.80;;
24401;SDS011;12539;48.808;11.292;2022-09-27T03:41:15;2.50;;;1.30;;
24401;SDS011;12539;48.808;11.292;2022-09-27T03:43:41;1.90;;;1.23;;
24401;SDS011;12539;48.808;11.292;2022-09-27T03:46:06;2.95;;;1.38;;
24401;SDS011;12539;48.808;11.292;2022-09-27T03:48:32;2.25;;;1.92;;
24401;SDS011;12539;48.808;11.292;2022-09-27T03:50:58;1.60;;;0.95;;
24401;SDS011;12539;48.808;11.292;2022-09-27T03:53:24;1.45;;;1.05;;
24401;SDS011;12539;48.808;11.292;2022-09-27T03:55:49;1.08;;;0.85;;
24401;SDS011;12539;48.808;11.292;2022-09-27T03:58:15;1.70;;;1.15;;
24401;SDS011;12539;48.808;11.292;2022-09-27T04:00:41;1.40;;;0.90;;
24401;SDS011;12539;48.808;11.292;2022-09-27T04:03:08;2.58;;;1.88;;
24401;SDS011;12539;48.808;11.292;2022-09-27T04:05:34;3.35;;;1.30;;
24401;SDS011;12539;48.808;11.292;2022-09-27T04:08:01;1.98;;;1.25;;
24401;SDS011;12539;48.808;11.292;2022-09-27T04:10:27;2.42;;;1.85;;
24401;SDS011;12539;48.808;11.292;2022-09-27T04:12:53;3.50;;;1.40;;
24401;SDS011;12539;48.808;11.292;2022-09-27T04:15:19;2.40;;;1.30;;
24401;SDS011;12539;48.808;11.292;2022-09-27T04:17:45;2.67;;;1.30;;
24401;SDS011;12539;48.808;11.292;2022-09-27T04:20:10;2.00;;;1.48;;
24401;SDS011;12539;48.808;11.292;2022-09-27T04:22:40;2.00;;;1.20;;
24401;SDS011;12539;48.808;11.292;2022-09-27T04:25:08;6.40;;;1.40;;
24401;SDS011;12539;48.808;11.292;2022-09-27T04:27:34;2.45;;;1.52;;
24401;SDS011;12539;48.808;11.292;2022-09-27T04:30:00;1.63;;;1.27;;
24401;SDS011;12539;48.808;11.292;2022-09-27T04:32:26;7.03;;;2.20;;
24401;SDS011;12539;48.808;11.292;2022-09-27T04:34:51;4.03;;;1.60;;
24401;SDS011;12539;48.808;11.292;2022-09-27T04:37:36;7.50;;;3.33;;
24401;SDS011;12539;48.808;11.292;2022-09-27T04:40:02;5.65;;;2.67;;
24401;SDS011;12539;48.808;11.292;2022-09-27T04:42:28;4.65;;;2.42;;
24401;SDS011;12539;48.808;11.292;2022-09-27T04:44:54;6.50;;;2.40;;
24401;SDS011;12539;48.808;11.292;2022-09-27T04:47:20;25.00;;;8.52;;
24401;SDS011;12539;48.808;11.292;2022-09-27T04:49:46;15.00;;;4.53;;
24401;SDS011;12539;48.808;11.292;2022-09-27T04:52:12;20.88;;;5.75;;
24401;SDS011;12539;48.808;11.292;2022-09-27T04:54:39;4.53;;;1.88;;
24401;SDS011;12539;48.808;11.292;2022-09-27T04:57:05;23.65;;;7.32;;
24401;SDS011;12539;48.808;11.292;2022-09-27T04:59:31;15.15;;;4.03;;
24401;SDS011;12539;48.808;11.292;2022-09-27T05:01:56;7.53;;;2.22;;
24401;SDS011;12539;48.808;11.292;2022-09-27T05:04:24;2.72;;;1.60;;
24401;SDS011;12539;48.808;11.292;2022-09-27T05:06:50;12.63;;;4.18;;
24401;SDS011;12539;48.808;11.292;2022-09-27T05:09:16;5.20;;;1.95;;
24401;SDS011;12539;48.808;11.292;2022-09-27T05:11:41;9.35;;;3.00;;
24401;SDS011;12539;48.808;11.292;2022-09-27T05:14:07;20.08;;;6.10;;
24401;SDS011;12539;48.808;11.292;2022-09-27T05:16:33;6.80;;;2.45;;
24401;SDS011;12539;48.808;11.292;2022-09-27T05:19:00;17.02;;;5.47;;
24401;SDS011;12539;48.808;11.292;2022-09-27T05:21:27;8.00;;;2.88;;
24401;SDS011;12539;48.808;11.292;2022-09-27T05:23:53;6.88;;;1.83;;
24401;SDS011;12539;48.808;11.292;2022-09-27T05:26:18;4.15;;;1.77;;
24401;SDS011;12539;48.808;11.292;2022-09-27T05:28:44;6.85;;;1.80;;
24401;SDS011;12539;48.808;11.292;2022-09-27T05:31:11;5.75;;;2.08;;
24401;SDS011;12539;48.808;11.292;2022-09-27T05:33:38;6.38;;;1.85;;
24401;SDS011;12539;48.808;11.292;2022-09-27T05:36:05;12.35;;;3.97;;
24401;SDS011;12539;48.808;11.292;2022-09-27T05:38:31;16.10;;;4.97;;
24401;SDS011;12539;48.808;11.292;2022-09-27T05:40:57;7.82;;;2.60;;
24401;SDS011;12539;48.808;11.292;2022-09-27T05:43:22;17.08;;;5.30;;
24401;SDS011;12539;48.808;11.292;2022-09-27T05:45:49;11.65;;;4.35;;
24401;SDS011;12539;48.808;11.292;2022-09-27T05:48:16;14.90;;;4.03;;
24401;SDS011;12539;48.808;11.292;2022-09-27T05:50:43;18.58;;;5.38;;
24401;SDS011;12539;48.808;11.292;2022-09-27T05:53:09;10.93;;;3.42;;
24401;SDS011;12539;48.808;11.292;2022-09-27T05:55:35;10.18;;;3.58;;
24401;SDS011;12539;48.808;11.292;2022-09-27T05:58:03;5.72;;;2.47;;
24401;SDS011;12539;48.808;11.292;2022-09-27T06:00:30;11.38;;;4.50;;
24401;SDS011;12539;48.808;11.292;2022-09-27T06:03:00;5.20;;;1.60;;
24401;SDS011;12539;48.808;11.292;2022-09-27T06:05:28;3.75;;;1.27;;
24401;SDS011;12539;48.808;11.292;2022-09-27T06:07:59;4.05;;;1.70;;
24401;SDS011;12539;48.808;11.292;2022-09-27T06:10:27;13.98;;;5.53;;
24401;SDS011;12539;48.808;11.292;2022-09-27T06:12:57;2.35;;;1.15;;
24401;SDS011;12539;48.808;11.292;2022-09-27T06:15:30;6.82;;;2.53;;
24401;SDS011;12539;48.808;11.292;2022-09-27T06:18:01;5.90;;;2.30;;
24401;SDS011;12539;48.808;11.292;2022-09-27T06:20:31;5.70;;;1.40;;
24401;SDS011;12539;48.808;11.292;2022-09-27T06:23:08;6.22;;;2.15;;
24401;SDS011;12539;48.808;11.292;2022-09-27T06:25:36;3.45;;;1.55;;
24401;SDS011;12539;48.808;11.292;2022-09-27T06:28:03;4.63;;;1.83;;
24401;SDS011;12539;48.808;11.292;2022-09-27T06:30:29;3.58;;;1.25;;
24401;SDS011;12539;48.808;11.292;2022-09-27T06:32:59;5.32;;;2.67;;
24401;SDS011;12539;48.808;11.292;2022-09-27T06:37:52;5.10;;;1.42;;
24401;SDS011;12539;48.808;11.292;2022-09-27T06:40:19;4.10;;;1.25;;
24401;SDS011;12539;48.808;11.292;2022-09-27T06:42:46;3.45;;;2.03;;
24401;SDS011;12539;48.808;11.292;2022-09-27T06:45:14;5.40;;;1.13;;
24401;SDS011;12539;48.808;11.292;2022-09-27T06:47:40;5.10;;;1.33;;
24401;SDS011;12539;48.808;11.292;2022-09-27T06:50:06;4.85;;;1.23;;
24401;SDS011;12539;48.808;11.292;2022-09-27T06:52:32;4.75;;;1.65;;
24401;SDS011;12539;48.808;11.292;2022-09-27T06:54:59;2.65;;;1.30;;
24401;SDS011;12539;48.808;11.292;2022-09-27T06:57:25;3.10;;;0.93;;
24401;SDS011;12539;48.808;11.292;2022-09-27T07:00:10;2.67;;;1.38;;
24401;SDS011;12539;48.808;11.292;2022-09-27T07:02:51;3.92;;;1.15;;
24401;SDS011;12539;48.808;11.292;2022-09-27T07:05:18;3.95;;;1.27;;
24401;SDS011;12539;48.808;11.292;2022-09-27T07:07:44;1.67;;;0.95;;
24401;SDS011;12539;48.808;11.292;2022-09-27T07:10:12;4.43;;;1.98;;
24401;SDS011;12539;48.808;11.292;2022-09-27T07:12:38;5.10;;;1.95;;
24401;SDS011;12539;48.808;11.292;2022-09-27T07:15:04;4.50;;;2.38;;
24401;SDS011;12539;48.808;11.292;2022-09-27T07:17:30;4.00;;;1.55;;
24401;SDS011;12539;48.808;11.292;2022-09-27T07:19:56;6.28;;;1.98;;
24401;SDS011;12539;48.808;11.292;2022-09-27T07:22:22;3.25;;;1.05;;
24401;SDS011;12539;48.808;11.292;2022-09-27T07:24:48;3.33;;;1.50;;
24401;SDS011;12539;48.808;11.292;2022-09-27T07:27:13;5.93;;;1.67;;
24401;SDS011;12539;48.808;11.292;2022-09-27T07:29:40;5.28;;;1.92;;
24401;SDS011;12539;48.808;11.292;2022-09-27T07:32:05;4.50;;;0.82;;
24401;SDS011;12539;48.808;11.292;2022-09-27T07:34:34;5.38;;;1.13;;
24401;SDS011;12539;48.808;11.292;2022-09-27T07:37:00;3.22;;;0.98;;
24401;SDS011;12539;48.808;11.292;2022-09-27T07:39:29;4.70;;;1.33;;
24401;SDS011;12539;48.808;11.292;2022-09-27T07:41:55;4.90;;;1.30;;
24401;SDS011;12539;48.808;11.292;2022-09-27T07:44:21;4.00;;;1.00;;
24401;SDS011;12539;48.808;11.292;2022-09-27T07:46:47;3.78;;;0.73;;
24401;SDS011;12539;48.808;11.292;2022-09-27T07:49:12;4.65;;;1.73;;
24401;SDS011;12539;48.808;11.292;2022-09-27T07:51:38;2.08;;;0.90;;
24401;SDS011;12539;48.808;11.292;2022-09-27T07:54:04;2.88;;;1.42;;
24401;SDS011;12539;48.808;11.292;2022-09-27T07:56:30;2.33;;;1.17;;
24401;SDS011;12539;48.808;11.292;2022-09-27T07:58:55;3.97;;;1.10;;
24401;SDS011;12539;48.808;11.292;2022-09-27T08:01:21;4.35;;;1.70;;
24401;SDS011;12539;48.808;11.292;2022-09-27T08:03:47;2.80;;;1.48;;
24401;SDS011;12539;48.808;11.292;2022-09-27T08:06:13;3.45;;;1.42;;
24401;SDS011;12539;48.808;11.292;2022-09-27T08:08:38;4.93;;;1.23;;
24401;SDS011;12539;48.808;11.292;2022-09-27T08:11:15;3.00;;;1.65;;
24401;SDS011;12539;48.808;11.292;2022-09-27T08:13:42;1.67;;;0.65;;
24401;SDS011;12539;48.808;11.292;2022-09-27T08:16:08;4.88;;;1.48;;
24401;SDS011;12539;48.808;11.292;2022-09-27T08:18:35;3.63;;;1.27;;
24401;SDS011;12539;48.808;11.292;2022-09-27T08:21:01;3.08;;;1.25;;
24401;SDS011;12539;48.808;11.292;2022-09-27T08:23:28;2.88;;;1.20;;
24401;SDS011;12539;48.808;11.292;2022-09-27T08:25:57;1.73;;;0.77;;
24401;SDS011;12539;48.808;11.292;2022-09-27T08:28:24;1.83;;;0.70;;
24401;SDS011;12539;48.808;11.292;2022-09-27T08:30:51;3.15;;;1.13;;
24401;SDS011;12539;48.808;11.292;2022-09-27T08:33:17;2.38;;;0.80;;
24401;SDS011;12539;48.808;11.292;2022-09-27T08:35:43;5.63;;;0.90;;
24401;SDS011;12539;48.808;11.292;2022-09-27T08:38:09;2.95;;;1.05;;
24401;SDS011;12539;48.808;11.292;2022-09-27T08:45:58;2.95;;;1.08;;
24401;SDS011;12539;48.808;11.292;2022-09-27T08:48:48;1.85;;;0.60;;
24401;SDS011;12539;48.808;11.292;2022-09-27T08:51:20;2.35;;;0.70;;
24401;SDS011;12539;48.808;11.292;2022-09-27T08:53:59;1.35;;;1.00;;
24401;SDS011;12539;48.808;11.292;2022-09-27T08:56:48;3.13;;;0.82;;
24401;SDS011;12539;48.808;11.292;2022-09-27T08:59:16;1.27;;;0.63;;
24401;SDS011;12539;48.808;11.292;2022-09-27T09:01:50;2.08;;;0.73;;
24401;SDS011;12539;48.808;11.292;2022-09-27T09:04:21;1.05;;;0.52;;
24401;SDS011;12539;48.808;11.292;2022-09-27T09:12:27;3.03;;;0.70;;
24401;SDS011;12539;48.808;11.292;2022-09-27T09:15:19;2.63;;;0.60;;
24401;SDS011;12539;48.808;11.292;2022-09-27T09:26:28;1.67;;;0.60;;
24401;SDS011;12539;48.808;11.292;2022-09-27T09:29:03;2.03;;;0.43;;
24401;SDS011;12539;48.808;11.292;2022-09-27T09:39:01;0.50;;;0.40;;
24401;SDS011;12539;48.808;11.292;2022-09-27T09:42:09;0.63;;;0.40;;
24401;SDS011;12539;48.808;11.292;2022-09-27T09:44:37;1.25;;;0.30;;
24401;SDS011;12539;48.808;11.292;2022-09-27T09:47:10;2.70;;;0.85;;
24401;SDS011;12539;48.808;11.292;2022-09-27T09:49:53;2.38;;;0.77;;
24401;SDS011;12539;48.808;11.292;2022-09-27T09:52:23;1.98;;;0.68;;
24401;SDS011;12539;48.808;11.292;2022-09-27T09:55:00;0.50;;;0.50;;
24401;SDS011;12539;48.808;11.292;2022-09-27T09:57:39;0.82;;;0.50;;
24401;SDS011;12539;48.808;11.292;2022-09-27T10:00:14;0.70;;;0.40;;
24401;SDS011;12539;48.808;11.292;2022-09-27T10:02:42;1.20;;;0.32;;
24401;SDS011;12539;48.808;11.292;2022-09-27T10:05:17;1.20;;;0.98;;
24401;SDS011;12539;48.808;11.292;2022-09-27T10:07:45;0.55;;;0.30;;
24401;SDS011;12539;48.808;11.292;2022-09-27T10:10:15;1.10;;;0.68;;
24401;SDS011;12539;48.808;11.292;2022-09-27T10:12:42;0.77;;;0.30;;
24401;SDS011;12539;48.808;11.292;2022-09-27T10:15:13;0.85;;;0.52;;
24401;SDS011;12539;48.808;11.292;2022-09-27T10:17:48;1.02;;;0.70;;
24401;SDS011;12539;48.808;11.292;2022-09-27T10:23:13;0.93;;;0.45;;
24401;SDS011;12539;48.808;11.292;2022-09-27T10:25:49;0.60;;;0.32;;
24401;SDS011;12539;48.808;11.292;2022-09-27T10:28:31;0.65;;;0.43;;
24401;SDS011;12539;48.808;11.292;2022-09-27T10:31:01;0.32;;;0.32;;
24401;SDS011;12539;48.808;11.292;2022-09-27T10:33:32;0.55;;;0.30;;
24401;SDS011;12539;48.808;11.292;2022-09-27T10:36:01;0.50;;;0.32;;
24401;SDS011;12539;48.808;11.292;2022-09-27T10:38:34;0.80;;;0.30;;
24401;SDS011;12539;48.808;11.292;2022-09-27T10:41:20;1.58;;;0.70;;
24401;SDS011;12539;48.808;11.292;2022-09-27T10:43:57;0.40;;;0.25;;
24401;SDS011;12539;48.808;11.292;2022-09-27T10:46:44;1.00;;;0.20;;
24401;SDS011;12539;48.808;11.292;2022-09-27T10:49:21;0.70;;;0.30;;
24401;SDS011;12539;48.808;11.292;2022-09-27T10:52:20;0.77;;;0.40;;
24401;SDS011;12539;48.808;11.292;2022-09-27T10:54:52;0.77;;;0.45;;
24401;SDS011;12539;48.808;11.292;2022-09-27T10:57:26;0.95;;;0.40;;
24401;SDS011;12539;48.808;11.292;2022-09-27T11:02:23;0.80;;;0.40;;
24401;SDS011;12539;48.808;11.292;2022-09-27T11:05:09;1.98;;;0.88;;
24401;SDS011;12539;48.808;11.292;2022-09-27T11:07:46;1.58;;;0.40;;
24401;SDS011;12539;48.808;11.292;2022-09-27T11:30:24;1.23;;;0.63;;
24401;SDS011;12539;48.808;11.292;2022-09-27T11:44:53;2.25;;;0.93;;
24401;SDS011;12539;48.808;11.292;2022-09-27T11:58:14;0.77;;;0.63;;
24401;SDS011;12539;48.808;11.292;2022-09-27T12:09:00;1.05;;;0.40;;
24401;SDS011;12539;48.808;11.292;2022-09-27T12:11:35;0.38;;;0.38;;
24401;SDS011;12539;48.808;11.292;2022-09-27T12:14:57;0.77;;;0.50;;
24401;SDS011;12539;48.808;11.292;2022-09-27T12:17:27;0.73;;;0.52;;
24401;SDS011;12539;48.808;11.292;2022-09-27T12:19:57;0.75;;;0.50;;
24401;SDS011;12539;48.808;11.292;2022-09-27T12:22:28;1.20;;;0.50;;
24401;SDS011;12539;48.808;11.292;2022-09-27T12:24:58;1.50;;;0.70;;
24401;SDS011;12539;48.808;11.292;2022-09-27T12:30:01;0.85;;;0.30;;
24401;SDS011;12539;48.808;11.292;2022-09-27T12:32:34;0.93;;;0.40;;
24401;SDS011;12539;48.808;11.292;2022-09-27T12:35:21;0.75;;;0.40;;
24401;SDS011;12539;48.808;11.292;2022-09-27T12:38:02;1.20;;;0.60;;
24401;SDS011;12539;48.808;11.292;2022-09-27T12:40:43;1.13;;;0.40;;
24401;SDS011;12539;48.808;11.292;2022-09-27T12:48:53;0.38;;;0.38;;
24401;SDS011;12539;48.808;11.292;2022-09-27T13:00:18;0.77;;;0.55;;
24401;SDS011;12539;48.808;11.292;2022-09-27T13:05:22;1.10;;;0.88;;
24401;SDS011;12539;48.808;11.292;2022-09-27T13:10:39;1.33;;;0.50;;
24401;SDS011;12539;48.808;11.292;2022-09-27T13:15:45;1.15;;;0.65;;
24401;SDS011;12539;48.808;11.292;2022-09-27T13:21:11;1.40;;;0.50;;
24401;SDS011;12539;48.808;11.292;2022-09-27T13:32:33;0.70;;;0.70;;
24401;SDS011;12539;48.808;11.292;2022-09-27T13:48:16;3.25;;;0.73;;
24401;SDS011;12539;48.808;11.292;2022-09-27T13:53:34;3.17;;;0.60;;
24401;SDS011;12539;48.808;11.292;2022-09-27T13:56:05;5.22;;;2.65;;
24401;SDS011;12539;48.808;11.292;2022-09-27T13:58:54;8.82;;;6.38;;
24401;SDS011;12539;48.808;11.292;2022-09-27T14:01:28;0.80;;;0.80;;
24401;SDS011;12539;48.808;11.292;2022-09-27T14:06:51;0.82;;;0.57;;
24401;SDS011;12539;48.808;11.292;2022-09-27T14:09:29;45.88;;;19.95;;
24401;SDS011;12539;48.808;11.292;2022-09-27T14:12:11;7.85;;;3.22;;
24401;SDS011;12539;48.808;11.292;2022-09-27T14:14:43;1.92;;;1.13;;
24401;SDS011;12539;48.808;11.292;2022-09-27T14:17:11;6.03;;;4.57;;
24401;SDS011;12539;48.808;11.292;2022-09-27T14:19:40;2.45;;;1.77;;
24401;SDS011;12539;48.808;11.292;2022-09-27T14:22:18;5.95;;;3.03;;
24401;SDS011;12539;48.808;11.292;2022-09-27T14:24:49;8.45;;;2.58;;
24401;SDS011;12539;48.808;11.292;2022-09-27T14:27:26;8.18;;;2.33;;
24401;SDS011;12539;48.808;11.292;2022-09-27T14:29:57;2.67;;;2.03;;
24401;SDS011;12539;48.808;11.292;2022-09-27T14:32:28;6.55;;;1.70;;
24401;SDS011;12539;48.808;11.292;2022-09-27T14:35:05;5.57;;;2.42;;
24401;SDS011;12539;48.808;11.292;2022-09-27T14:37:52;3.58;;;1.25;;
24401;SDS011;12539;48.808;11.292;2022-09-27T14:40:19;15.27;;;1.92;;
24401;SDS011;12539;48.808;11.292;2022-09-27T14:42:46;39.05;;;3.80;;
24401;SDS011;12539;48.808;11.292;2022-09-27T14:45:20;9.20;;;1.55;;
24401;SDS011;12539;48.808;11.292;2022-09-27T14:47:47;4.28;;;2.50;;
24401;SDS011;12539;48.808;11.292;2022-09-27T14:52:51;5.93;;;2.00;;
24401;SDS011;12539;48.808;11.292;2022-09-27T14:55:22;3.05;;;1.30;;
24401;SDS011;12539;48.808;11.292;2022-09-27T14:57:52;9.10;;;2.50;;
24401;SDS011;12539;48.808;11.292;2022-09-27T15:00:30;8.55;;;2.88;;
24401;SDS011;12539;48.808;11.292;2022-09-27T15:03:00;6.40;;;2.38;;
24401;SDS011;12539;48.808;11.292;2022-09-27T15:05:33;12.10;;;3.58;;
24401;SDS011;12539;48.808;11.292;2022-09-27T15:08:02;9.40;;;3.75;;
24401;SDS011;12539;48.808;11.292;2022-09-27T15:10:31;6.53;;;3.10;;
24401;SDS011;12539;48.808;11.292;2022-09-27T15:13:03;16.10;;;10.82;;
24401;SDS011;12539;48.808;11.292;2022-09-27T15:15:34;19.55;;;11.57;;
24401;SDS011;12539;48.808;11.292;2022-09-27T15:18:03;29.10;;;20.50;;
24401;SDS011;12539;48.808;11.292;2022-09-27T15:20:52;8.05;;;4.07;;
24401;SDS011;12539;48.808;11.292;2022-09-27T15:23:28;6.25;;;3.38;;
24401;SDS011;12539;48.808;11.292;2022-09-27T15:28:47;9.05;;;3.15;;
24401;SDS011;12539;48.808;11.292;2022-09-27T15:31:16;7.47;;;3.92;;
24401;SDS011;12539;48.808;11.292;2022-09-27T15:33:49;4.55;;;3.05;;
24401;SDS011;12539;48.808;11.292;2022-09-27T15:36:18;5.55;;;3.40;;
24401;SDS011;12539;48.808;11.292;2022-09-27T15:39:10;8.02;;;5.50;;
24401;SDS011;12539;48.808;11.292;2022-09-27T15:42:07;6.10;;;4.38;;
24401;SDS011;12539;48.808;11.292;2022-09-27T15:44:46;5.07;;;3.85;;
24401;SDS011;12539;48.808;11.292;2022-09-27T15:50:15;6.10;;;2.42;;
24401;SDS011;12539;48.808;11.292;2022-09-27T15:52:50;6.05;;;2.95;;
24401;SDS011;12539;48.808;11.292;2022-09-27T15:55:20;5.00;;;2.87;;
24401;SDS011;12539;48.808;11.292;2022-09-27T15:57:53;5.82;;;3.75;;
24401;SDS011;12539;48.808;11.292;2022-09-27T16:00:23;6.07;;;3.53;;
24401;SDS011;12539;48.808;11.292;2022-09-27T16:02:50;5.05;;;2.55;;
24401;SDS011;12539;48.808;11.292;2022-09-27T16:05:16;6.03;;;3.85;;
24401;SDS011;12539;48.808;11.292;2022-09-27T16:07:42;6.55;;;3.35;;
24401;SDS011;12539;48.808;11.292;2022-09-27T16:10:16;5.47;;;2.97;;
24401;SDS011;12539;48.808;11.292;2022-09-27T16:12:43;7.32;;;2.92;;
24401;SDS011;12539;48.808;11.292;2022-09-27T16:15:10;3.33;;;2.28;;
24401;SDS011;12539;48.808;11.292;2022-09-27T16:17:37;4.40;;;1.92;;
24401;SDS011;12539;48.808;11.292;2022-09-27T16:20:06;3.70;;;2.55;;
24401;SDS011;12539;48.808;11.292;2022-09-27T16:22:38;3.70;;;2.70;;
24401;SDS011;12539;48.808;11.292;2022-09-27T16:25:04;6.00;;;2.47;;
24401;SDS011;12539;48.808;11.292;2022-09-27T16:27:30;5.70;;;3.30;;
24401;SDS011;12539;48.808;11.292;2022-09-27T16:29:56;7.50;;;5.15;;
24401;SDS011;12539;48.808;11.292;2022-09-27T16:32:22;4.75;;;3.13;;
24401;SDS011;12539;48.808;11.292;2022-09-27T16:34:48;4.40;;;3.53;;
24401;SDS011;12539;48.808;11.292;2022-09-27T16:37:17;5.72;;;3.55;;
24401;SDS011;12539;48.808;11.292;2022-09-27T16:39:43;5.32;;;3.30;;
24401;SDS011;12539;48.808;11.292;2022-09-27T16:42:09;4.80;;;3.28;;
24401;SDS011;12539;48.808;11.292;2022-09-27T16:44:34;5.15;;;2.60;;
24401;SDS011;12539;48.808;11.292;2022-09-27T16:47:03;6.40;;;3.25;;
24401;SDS011;12539;48.808;11.292;2022-09-27T16:49:31;4.88;;;3.03;;
24401;SDS011;12539;48.808;11.292;2022-09-27T16:52:16;4.82;;;2.88;;
24401;SDS011;12539;48.808;11.292;2022-09-27T16:54:42;4.40;;;2.70;;
24401;SDS011;12539;48.808;11.292;2022-09-27T16:57:08;21.50;;;5.97;;
24401;SDS011;12539;48.808;11.292;2022-09-27T16:59:34;4.13;;;3.47;;
24401;SDS011;12539;48.808;11.292;2022-09-27T17:02:00;12.45;;;9.02;;
24401;SDS011;12539;48.808;11.292;2022-09-27T17:04:26;18.98;;;16.65;;
24401;SDS011;12539;48.808;11.292;2022-09-27T17:06:53;11.00;;;7.38;;
24401;SDS011;12539;48.808;11.292;2022-09-27T17:09:22;6.20;;;5.55;;
24401;SDS011;12539;48.808;11.292;2022-09-27T17:11:48;9.50;;;5.32;;
24401;SDS011;12539;48.808;11.292;2022-09-27T17:14:14;6.03;;;4.38;;
24401;SDS011;12539;48.808;11.292;2022-09-27T17:16:41;5.28;;;3.67;;
24401;SDS011;12539;48.808;11.292;2022-09-27T17:19:08;7.20;;;3.63;;
24401;SDS011;12539;48.808;11.292;2022-09-27T17:21:37;4.10;;;2.50;;
24401;SDS011;12539;48.808;11.292;2022-09-27T17:24:03;5.53;;;2.25;;
24401;SDS011;12539;48.808;11.292;2022-09-27T17:26:29;6.57;;;3.35;;
24401;SDS011;12539;48.808;11.292;2022-09-27T17:28:56;7.18;;;3.95;;
24401;SDS011;12539;48.808;11.292;2022-09-27T17:31:22;7.18;;;4.78;;
24401;SDS011;12539;48.808;11.292;2022-09-27T17:33:50;15.77;;;7.72;;
24401;SDS011;12539;48.808;11.292;2022-09-27T17:36:18;10.35;;;6.43;;
24401;SDS011;12539;48.808;11.292;2022-09-27T17:38:47;11.85;;;8.20;;
24401;SDS011;12539;48.808;11.292;2022-09-27T17:41:20;11.73;;;9.63;;
24401;SDS011;12539;48.808;11.292;2022-09-27T17:43:51;13.15;;;8.02;;
24401;SDS011;12539;48.808;11.292;2022-09-27T17:46:22;24.13;;;14.70;;
24401;SDS011;12539;48.808;11.292;2022-09-27T17:48:49;10.73;;;8.60;;
24401;SDS011;12539;48.808;11.292;2022-09-27T17:51:34;12.77;;;6.60;;
24401;SDS011;12539;48.808;11.292;2022-09-27T17:54:02;15.80;;;9.57;;
24401;SDS011;12539;48.808;11.292;2022-09-27T17:56:29;14.15;;;6.95;;
24401;SDS011;12539;48.808;11.292;2022-09-27T17:58:58;9.95;;;5.50;;
24401;SDS011;12539;48.808;11.292;2022-09-27T18:01:25;13.43;;;6.63;;
24401;SDS011;12539;48.808;11.292;2022-09-27T18:03:51;20.52;;;9.15;;